Time;durP1;ratioP1;P1;durP2;ratioP2;P2;SDS_P1;SDS_P2;PMS_P1;PMS_P2;Temp;Humidity;BMP_temperature;BMP_pressure;BME280_temperature;BME280_humidity;BME280_pressure;Samples;Min_cycle;Max_cycle;Signal;HPM_P1;HPM_P2
2022/07/24 00:00:53;;;;;;;5.77;5.27;;;24.60;66.10;;;;;;5065545;28;20215;-72
2022/07/24 00:03:19;;;;;;;5.57;5.07;;;24.60;65.70;;;;;;5080313;28;20670;-71
2022/07/24 00:05:44;;;;;;;6.87;6.17;;;24.50;65.70;;;;;;5054572;28;20210;-71
2022/07/24 00:08:10;;;;;;;6.03;5.43;;;24.50;66.20;;;;;;5048472;28;20214;-72
2022/07/24 00:10:36;;;;;;;5.80;5.30;;;24.50;66.10;;;;;;5051775;28;20226;-71
2022/07/24 00:13:02;;;;;;;6.10;5.47;;;24.50;66.50;;;;;;5050958;28;20499;-71
2022/07/24 00:15:30;;;;;;;5.20;4.70;;;24.40;66.40;;;;;;5068440;28;20222;-71
2022/07/24 00:17:56;;;;;;;6.87;5.60;;;24.40;66.70;;;;;;5035946;28;20457;-71
2022/07/24 00:20:22;;;;;;;5.73;5.20;;;24.40;66.90;;;;;;5052161;28;20534;-71
2022/07/24 00:22:48;;;;;;;5.63;5.17;;;24.40;66.70;;;;;;5058083;28;20297;-71
2022/07/24 00:25:13;;;;;;;6.17;5.67;;;24.30;66.40;;;;;;5050976;28;20240;-71
2022/07/24 00:27:39;;;;;;;7.03;6.40;;;24.30;66.30;;;;;;5052018;28;20228;-71
2022/07/24 00:30:06;;;;;;;5.60;4.90;;;24.30;66.60;;;;;;5051277;28;20218;-71
2022/07/24 00:32:31;;;;;;;6.10;5.60;;;24.30;66.80;;;;;;5079756;28;20297;-71
2022/07/24 00:34:57;;;;;;;6.67;6.03;;;24.20;66.90;;;;;;5055868;28;20879;-72
2022/07/24 00:37:23;;;;;;;5.80;5.10;;;24.20;67.20;;;;;;5031595;28;20637;-71
2022/07/24 00:39:48;;;;;;;4.73;4.33;;;24.30;66.90;;;;;;5051179;28;20296;-71
2022/07/24 00:42:14;;;;;;;6.13;5.63;;;24.20;67.20;;;;;;5034067;28;20223;-69
2022/07/24 00:44:40;;;;;;;4.73;4.40;;;24.20;67.00;;;;;;5024608;28;20261;-71
2022/07/24 00:47:06;;;;;;;6.37;5.77;;;24.20;66.70;;;;;;5021057;28;20211;-71
2022/07/24 00:49:31;;;;;;;6.13;5.00;;;24.20;66.60;;;;;;5050677;28;20268;-71
2022/07/24 00:51:58;;;;;;;5.80;5.30;;;24.20;67.20;;;;;;5058632;28;20234;-71
2022/07/24 00:54:24;;;;;;;6.00;5.60;;;24.20;67.20;;;;;;5037282;28;20213;-71
2022/07/24 00:56:52;;;;;;;5.77;5.20;;;24.20;67.30;;;;;;5069377;28;20453;-71
2022/07/24 00:59:19;;;;;;;6.80;5.17;;;24.10;67.30;;;;;;5050606;28;20488;-71
2022/07/24 01:01:46;;;;;;;6.30;5.80;;;24.10;67.20;;;;;;5050830;28;20457;-71
2022/07/24 01:04:12;;;;;;;5.83;5.33;;;24.10;67.00;;;;;;5033475;28;20973;-70
2022/07/24 01:06:41;;;;;;;5.60;5.10;;;24.10;67.50;;;;;;5057779;28;20914;-71
2022/07/24 01:09:07;;;;;;;5.57;5.07;;;24.00;67.60;;;;;;5053930;28;20477;-71
2022/07/24 01:11:33;;;;;;;5.83;5.33;;;23.90;67.50;;;;;;5051553;28;20503;-71
2022/07/24 01:14:00;;;;;;;6.20;5.60;;;23.90;67.50;;;;;;5030197;28;20485;-71
2022/07/24 01:16:25;;;;;;;4.83;4.50;;;23.90;67.70;;;;;;5033786;28;20644;-72
2022/07/24 01:18:51;;;;;;;5.33;4.83;;;23.90;68.10;;;;;;5050853;28;20552;-71
2022/07/24 01:21:17;;;;;;;5.47;5.07;;;23.90;67.90;;;;;;5063851;28;20226;-71
2022/07/24 01:23:42;;;;;;;7.30;4.90;;;23.90;68.00;;;;;;5048392;28;20253;-70
2022/07/24 01:26:08;;;;;;;5.33;4.93;;;23.80;67.60;;;;;;5064614;28;20210;-71
2022/07/24 01:28:35;;;;;;;4.87;4.50;;;23.80;67.90;;;;;;5051046;28;20601;-71
2022/07/24 01:31:01;;;;;;;5.77;5.27;;;23.90;68.10;;;;;;5091002;28;20222;-71
2022/07/24 01:33:27;;;;;;;6.00;5.40;;;23.80;67.90;;;;;;5051977;28;20498;-71
2022/07/24 01:35:52;;;;;;;10.93;5.00;;;23.90;68.00;;;;;;5061674;28;20214;-71
2022/07/24 01:38:18;;;;;;;5.13;4.73;;;23.90;67.90;;;;;;5049948;28;20214;-71
2022/07/24 01:40:44;;;;;;;5.20;4.80;;;23.80;68.00;;;;;;5057791;28;20215;-71
2022/07/24 01:43:10;;;;;;;5.30;4.90;;;23.70;68.00;;;;;;5046741;28;20223;-71
2022/07/24 01:45:36;;;;;;;5.83;5.33;;;23.70;68.30;;;;;;5037083;28;20247;-71
2022/07/24 01:48:03;;;;;;;5.50;5.00;;;23.70;68.00;;;;;;5046236;28;20292;-73
2022/07/24 01:50:29;;;;;;;6.63;5.30;;;23.60;68.70;;;;;;5053873;28;20246;-71
2022/07/24 01:52:55;;;;;;;6.00;5.50;;;23.50;68.80;;;;;;5061062;28;20495;-71
2022/07/24 01:55:21;;;;;;;6.30;5.80;;;23.50;69.00;;;;;;5061229;28;20227;-70
2022/07/24 01:57:47;;;;;;;4.73;4.33;;;23.40;69.20;;;;;;5040528;28;20234;-71
2022/07/24 02:00:15;;;;;;;5.37;4.87;;;23.40;69.50;;;;;;5053419;28;20832;-71
2022/07/24 02:02:43;;;;;;;8.30;5.90;;;23.40;69.70;;;;;;5053258;28;20811;-71
2022/07/24 02:05:09;;;;;;;6.37;5.77;;;23.40;69.30;;;;;;5041207;28;20440;-71
2022/07/24 02:07:35;;;;;;;6.23;5.67;;;23.40;69.30;;;;;;5085820;28;21118;-71
2022/07/24 02:10:02;;;;;;;7.23;6.53;;;23.50;68.80;;;;;;5050756;28;20453;-71
2022/07/24 02:12:28;;;;;;;5.43;4.93;;;23.50;68.50;;;;;;5060000;28;20225;-72
2022/07/24 02:14:54;;;;;;;5.77;5.37;;;23.50;68.30;;;;;;5054422;28;20524;-71
2022/07/24 02:17:19;;;;;;;6.07;5.60;;;23.50;68.30;;;;;;5036892;28;20218;-70
2022/07/24 02:19:45;;;;;;;6.00;5.50;;;23.50;68.40;;;;;;5065846;28;20591;-71
2022/07/24 02:22:11;;;;;;;6.00;5.50;;;23.50;68.40;;;;;;5068406;28;20254;-71
2022/07/24 02:24:36;;;;;;;7.20;5.10;;;23.50;68.30;;;;;;5054097;28;20226;-71
2022/07/24 02:27:02;;;;;;;6.10;5.17;;;23.50;68.30;;;;;;5070441;28;20226;-70
2022/07/24 02:29:28;;;;;;;5.97;5.50;;;23.50;68.40;;;;;;5053231;28;20305;-70
2022/07/24 02:31:53;;;;;;;5.40;5.00;;;23.50;68.40;;;;;;5033803;28;20219;-71
2022/07/24 02:34:19;;;;;;;6.27;5.70;;;23.50;68.30;;;;;;5039876;28;20212;-70
2022/07/24 02:36:45;;;;;;;6.17;5.57;;;23.50;68.50;;;;;;5053464;28;20222;-71
2022/07/24 02:39:10;;;;;;;5.80;5.30;;;23.40;68.20;;;;;;5053863;28;20231;-70
2022/07/24 02:41:36;;;;;;;5.83;5.43;;;23.40;68.40;;;;;;5067263;28;20226;-71
2022/07/24 02:44:02;;;;;;;5.27;4.77;;;23.40;68.30;;;;;;5064130;28;20272;-71
2022/07/24 02:46:27;;;;;;;5.73;5.23;;;23.40;68.30;;;;;;5069771;28;20207;-71
2022/07/24 02:48:53;;;;;;;5.70;5.20;;;23.40;68.70;;;;;;5054101;28;20226;-71
2022/07/24 02:51:19;;;;;;;8.47;5.70;;;23.40;68.50;;;;;;5049038;28;20223;-71
2022/07/24 02:53:44;;;;;;;5.20;4.70;;;23.30;68.40;;;;;;5030260;28;20599;-71
2022/07/24 02:56:10;;;;;;;5.17;4.73;;;23.30;68.30;;;;;;5065236;28;20217;-71
2022/07/24 02:58:36;;;;;;;5.40;4.90;;;23.30;68.60;;;;;;5042833;28;20206;-70
2022/07/24 03:01:01;;;;;;;5.20;4.70;;;23.30;68.70;;;;;;5053375;28;20222;-72
2022/07/24 03:03:27;;;;;;;5.93;5.43;;;23.30;68.70;;;;;;5053390;28;20638;-71
2022/07/24 03:05:53;;;;;;;5.30;4.80;;;23.20;68.70;;;;;;5041487;28;20303;-71
2022/07/24 03:08:18;;;;;;;5.37;4.83;;;23.20;68.70;;;;;;5054386;28;20219;-71
2022/07/24 03:10:44;;;;;;;5.50;4.93;;;23.20;68.70;;;;;;5060745;28;20636;-71
2022/07/24 03:13:10;;;;;;;5.50;5.03;;;23.20;68.80;;;;;;5074162;28;20781;-70
2022/07/24 03:15:36;;;;;;;5.27;4.77;;;23.20;68.80;;;;;;5051592;28;20286;-71
2022/07/24 03:18:01;;;;;;;5.53;5.00;;;23.10;68.70;;;;;;5035583;28;20992;-71
2022/07/24 03:20:28;;;;;;;5.03;4.53;;;23.10;68.80;;;;;;5047475;28;20686;-71
2022/07/24 03:22:55;;;;;;;5.50;5.10;;;23.00;68.90;;;;;;5088157;28;20214;-70
2022/07/24 03:25:21;;;;;;;5.47;4.80;;;23.00;68.80;;;;;;5062958;28;20489;-70
2022/07/24 03:27:47;;;;;;;5.77;5.27;;;23.00;68.90;;;;;;5053024;28;20984;-71
2022/07/24 03:30:14;;;;;;;4.80;4.40;;;23.00;68.90;;;;;;5035843;28;20441;-71
2022/07/24 03:32:40;;;;;;;5.57;5.00;;;23.00;68.70;;;;;;5034311;28;20530;-71
2022/07/24 03:35:07;;;;;;;5.43;4.93;;;23.00;69.00;;;;;;5016363;28;20449;-70
2022/07/24 03:37:33;;;;;;;5.37;4.80;;;22.90;68.90;;;;;;5027592;28;20441;-71
2022/07/24 03:39:58;;;;;;;5.37;4.90;;;22.90;68.90;;;;;;5071532;28;20819;-70
2022/07/24 03:42:24;;;;;;;5.20;4.70;;;22.90;68.90;;;;;;5067561;28;20214;-71
2022/07/24 03:44:50;;;;;;;5.73;5.20;;;22.90;69.00;;;;;;5048499;28;20215;-71
2022/07/24 03:47:16;;;;;;;5.40;4.90;;;22.90;68.80;;;;;;5037846;28;20268;-71
2022/07/24 03:49:41;;;;;;;5.20;4.70;;;22.90;68.70;;;;;;5070954;28;20217;-71
2022/07/24 03:52:07;;;;;;;5.80;5.20;;;22.80;68.80;;;;;;5041523;28;20312;-71
2022/07/24 03:54:33;;;;;;;11.23;5.13;;;22.80;68.80;;;;;;5051934;28;20217;-71
2022/07/24 03:56:59;;;;;;;5.73;4.97;;;22.80;69.00;;;;;;5036644;28;20578;-71
2022/07/24 03:59:24;;;;;;;5.70;5.20;;;22.80;69.00;;;;;;5071034;28;20698;-70
2022/07/24 04:01:50;;;;;;;5.90;5.40;;;22.80;69.10;;;;;;5063423;28;20218;-71
2022/07/24 04:04:16;;;;;;;5.40;4.93;;;22.70;69.10;;;;;;5071607;28;20215;-71
2022/07/24 04:06:42;;;;;;;6.00;5.47;;;22.70;68.90;;;;;;5070539;28;20487;-71
2022/07/24 04:09:08;;;;;;;5.07;4.67;;;22.60;69.10;;;;;;5036583;28;20233;-72
2022/07/24 04:11:34;;;;;;;5.90;5.37;;;22.70;69.30;;;;;;5051408;28;20226;-70
2022/07/24 04:14:00;;;;;;;5.10;4.50;;;22.60;69.10;;;;;;5068749;28;20511;-71
2022/07/24 04:16:25;;;;;;;4.93;4.53;;;22.60;69.20;;;;;;5035542;28;20218;-71
2022/07/24 04:18:51;;;;;;;5.07;4.67;;;22.60;69.10;;;;;;5043277;28;20223;-71
2022/07/24 04:21:17;;;;;;;5.07;4.57;;;22.60;69.50;;;;;;5052222;28;20629;-71
2022/07/24 04:23:43;;;;;;;4.90;4.50;;;22.50;70.20;;;;;;5051353;28;20218;-71
2022/07/24 04:26:09;;;;;;;5.60;5.10;;;22.50;69.50;;;;;;5070020;28;20449;-70
2022/07/24 04:28:35;;;;;;;6.60;4.33;;;22.50;69.50;;;;;;5052653;28;20257;-71
2022/07/24 04:31:01;;;;;;;5.73;4.77;;;22.50;69.80;;;;;;5069610;28;20857;-72
2022/07/24 04:33:27;;;;;;;5.27;4.70;;;22.50;70.00;;;;;;5060049;28;20435;-72
2022/07/24 04:35:53;;;;;;;6.43;5.20;;;22.50;69.90;;;;;;5078784;28;20459;-71
2022/07/24 04:38:18;;;;;;;4.63;4.23;;;22.40;69.80;;;;;;5054914;28;20219;-71
2022/07/24 04:40:44;;;;;;;6.50;4.90;;;22.40;70.00;;;;;;5052465;28;20211;-71
2022/07/24 04:43:10;;;;;;;5.97;5.37;;;22.40;70.10;;;;;;5058921;28;20617;-71
2022/07/24 04:45:36;;;;;;;5.20;4.80;;;22.40;70.00;;;;;;5068482;28;20267;-71
2022/07/24 04:48:02;;;;;;;5.33;4.83;;;22.40;70.10;;;;;;5042849;28;20754;-71
2022/07/24 04:50:28;;;;;;;5.40;4.80;;;22.40;70.30;;;;;;5082458;28;20231;-71
2022/07/24 04:52:54;;;;;;;5.83;5.33;;;22.40;70.50;;;;;;5039602;28;20952;-71
2022/07/24 04:55:20;;;;;;;5.70;5.20;;;22.30;70.30;;;;;;5063063;28;20211;-71
2022/07/24 04:57:45;;;;;;;5.40;4.90;;;22.30;70.60;;;;;;5058098;28;20984;-71
2022/07/24 05:00:13;;;;;;;5.20;4.80;;;22.40;70.60;;;;;;5058897;28;20226;-70
2022/07/24 05:02:39;;;;;;;5.60;5.10;;;22.40;70.20;;;;;;5055599;28;20211;-71
2022/07/24 05:05:05;;;;;;;6.10;5.07;;;22.40;70.50;;;;;;5068166;28;20499;-71
2022/07/24 05:07:31;;;;;;;7.40;5.23;;;22.40;71.20;;;;;;5059042;28;20250;-70
2022/07/24 05:09:57;;;;;;;5.30;4.83;;;22.40;70.90;;;;;;5069772;28;20484;-71
2022/07/24 05:12:23;;;;;;;5.10;4.70;;;22.40;71.00;;;;;;5045814;28;20253;-71
2022/07/24 05:14:49;;;;;;;5.40;4.90;;;22.40;71.20;;;;;;5051693;28;20460;-71
2022/07/24 05:17:15;;;;;;;5.47;4.97;;;22.40;71.10;;;;;;5054073;28;20473;-72
2022/07/24 05:19:40;;;;;;;5.50;5.03;;;22.40;71.50;;;;;;5059588;28;20222;-71
2022/07/24 05:22:06;;;;;;;5.60;5.10;;;22.40;71.80;;;;;;5053634;28;20214;-70
2022/07/24 05:24:32;;;;;;;5.03;4.63;;;22.40;71.60;;;;;;5052708;28;20215;-71
2022/07/24 05:26:58;;;;;;;5.90;5.40;;;22.40;71.60;;;;;;5045014;28;20630;-71
2022/07/24 05:29:23;;;;;;;5.40;4.93;;;22.40;71.50;;;;;;5035655;28;20227;-70
2022/07/24 05:31:51;;;;;;;5.00;4.50;;;22.40;72.10;;;;;;5063542;28;20254;-71
2022/07/24 05:34:17;;;;;;;5.30;4.80;;;22.40;71.90;;;;;;5060064;28;20226;-71
2022/07/24 05:36:43;;;;;;;5.53;5.00;;;22.50;72.50;;;;;;5072187;28;20490;-71
2022/07/24 05:39:09;;;;;;;4.30;4.00;;;22.50;73.10;;;;;;5055502;28;20222;-71
2022/07/24 05:41:34;;;;;;;5.83;5.20;;;22.50;72.80;;;;;;5055803;28;20218;-71
2022/07/24 05:44:00;;;;;;;5.73;4.80;;;22.50;73.10;;;;;;5038377;28;20218;-71
2022/07/24 05:46:26;;;;;;;5.67;5.00;;;22.60;73.40;;;;;;5032947;28;20700;-71
2022/07/24 05:48:52;;;;;;;6.30;5.10;;;22.60;73.00;;;;;;5054661;28;20226;-71
2022/07/24 05:51:17;;;;;;;5.00;4.50;;;22.60;73.90;;;;;;5039705;28;20361;-71
2022/07/24 05:53:43;;;;;;;5.53;5.03;;;22.70;74.60;;;;;;5054533;28;20294;-70
2022/07/24 05:56:09;;;;;;;5.93;5.03;;;22.70;73.30;;;;;;5038843;28;20604;-71
2022/07/24 05:58:35;;;;;;;7.97;5.30;;;22.70;74.50;;;;;;5038679;28;20292;-71
2022/07/24 06:01:01;;;;;;;6.10;5.60;;;22.70;74.10;;;;;;5079418;28;20215;-71
2022/07/24 06:03:26;;;;;;;8.73;5.27;;;22.70;73.60;;;;;;5073109;28;20471;-70
2022/07/24 06:05:52;;;;;;;5.27;4.80;;;22.80;74.00;;;;;;5054408;28;20223;-71
2022/07/24 06:08:18;;;;;;;5.83;5.03;;;22.80;73.70;;;;;;5070423;28;20253;-71
2022/07/24 06:10:45;;;;;;;6.53;4.80;;;22.80;73.60;;;;;;5048651;28;20755;-71
2022/07/24 06:13:10;;;;;;;6.57;4.47;;;22.80;73.70;;;;;;5031574;28;20679;-71
2022/07/24 06:15:36;;;;;;;5.43;4.83;;;22.90;74.40;;;;;;5045262;28;20468;-71
2022/07/24 06:18:02;;;;;;;5.97;5.47;;;22.90;74.20;;;;;;5036838;28;20695;-72
2022/07/24 06:20:28;;;;;;;5.17;4.67;;;22.90;74.50;;;;;;5054497;28;20242;-71
2022/07/24 06:22:54;;;;;;;11.13;5.33;;;23.00;74.70;;;;;;5053734;28;20592;-70
2022/07/24 06:25:19;;;;;;;5.50;4.70;;;23.00;74.80;;;;;;5064773;28;20219;-71
2022/07/24 06:27:48;;;;;;;6.03;5.13;;;23.10;75.00;;;;;;5072775;28;20250;-71
2022/07/24 06:30:18;;;;;;;5.37;4.87;;;23.10;75.10;;;;;;5071661;28;20261;-71
2022/07/24 06:32:44;;;;;;;8.47;5.60;;;23.10;75.00;;;;;;5056478;28;20451;-71
2022/07/24 06:35:12;;;;;;;5.17;4.77;;;23.20;75.10;;;;;;5047597;28;20452;-71
2022/07/24 06:37:37;;;;;;;7.37;4.53;;;23.20;75.60;;;;;;5046151;28;20465;-72
2022/07/24 06:40:04;;;;;;;4.97;4.57;;;23.30;75.30;;;;;;5054946;28;20526;-71
2022/07/24 06:42:30;;;;;;;5.70;5.20;;;23.30;75.50;;;;;;5071567;28;20218;-71
2022/07/24 06:44:56;;;;;;;5.83;4.67;;;23.40;75.60;;;;;;5059852;28;21020;-71
2022/07/24 06:47:21;;;;;;;5.47;5.00;;;23.40;75.00;;;;;;5053928;28;20221;-71
2022/07/24 06:49:47;;;;;;;6.10;5.50;;;23.40;75.20;;;;;;5048737;28;20219;-71
2022/07/24 06:52:13;;;;;;;5.20;4.80;;;23.50;75.30;;;;;;5053416;28;20238;-70
2022/07/24 06:54:38;;;;;;;5.33;4.83;;;23.60;75.90;;;;;;5067197;28;20215;-71
2022/07/24 06:57:04;;;;;;;6.27;4.83;;;23.60;75.60;;;;;;5072370;28;20640;-71
2022/07/24 06:59:30;;;;;;;5.27;4.77;;;23.60;75.20;;;;;;5036576;28;20296;-71
2022/07/24 07:01:56;;;;;;;5.00;4.60;;;23.70;75.40;;;;;;5057829;28;20316;-71
2022/07/24 07:04:21;;;;;;;5.63;5.00;;;23.80;75.40;;;;;;5053416;28;20287;-71
2022/07/24 07:06:47;;;;;;;5.30;4.80;;;23.80;75.30;;;;;;5038014;28;20260;-71
2022/07/24 07:09:13;;;;;;;6.60;5.40;;;23.90;75.70;;;;;;5070418;28;20300;-71
2022/07/24 07:11:39;;;;;;;10.57;5.10;;;24.00;75.90;;;;;;5053566;28;20613;-71
2022/07/24 07:14:04;;;;;;;5.83;5.10;;;24.10;76.10;;;;;;5064555;28;20241;-71
2022/07/24 07:16:30;;;;;;;6.57;6.07;;;24.20;75.70;;;;;;5034770;28;20248;-70
2022/07/24 07:18:56;;;;;;;6.43;5.10;;;24.20;75.40;;;;;;5061546;28;20264;-71
2022/07/24 07:21:21;;;;;;;4.60;4.20;;;24.20;75.20;;;;;;5035566;28;20227;-71
2022/07/24 07:23:47;;;;;;;4.87;4.37;;;24.30;75.20;;;;;;5055591;28;20266;-71
2022/07/24 07:26:13;;;;;;;5.00;4.60;;;24.30;75.20;;;;;;5039301;28;20206;-71
2022/07/24 07:28:39;;;;;;;5.20;4.80;;;24.40;75.50;;;;;;5036823;28;20214;-71
2022/07/24 07:31:04;;;;;;;5.20;4.63;;;24.40;75.00;;;;;;5042572;28;20641;-71
2022/07/24 07:33:30;;;;;;;5.43;4.30;;;24.50;75.40;;;;;;5070610;28;20219;-71
2022/07/24 07:35:56;;;;;;;5.30;4.90;;;24.60;75.30;;;;;;5063238;28;20218;-71
2022/07/24 07:38:21;;;;;;;5.50;5.07;;;24.70;75.20;;;;;;5037981;28;20226;-70
2022/07/24 07:40:47;;;;;;;5.43;5.00;;;24.70;74.80;;;;;;5052479;28;20218;-71
2022/07/24 07:43:13;;;;;;;5.53;5.03;;;24.80;74.70;;;;;;5069257;28;20245;-70
2022/07/24 07:45:39;;;;;;;4.40;4.00;;;24.80;74.80;;;;;;5052292;28;20273;-71
2022/07/24 07:48:05;;;;;;;6.10;5.30;;;24.90;75.00;;;;;;5052005;28;20584;-71
2022/07/24 07:50:30;;;;;;;4.63;4.23;;;24.90;75.50;;;;;;5068891;28;20244;-70
2022/07/24 07:52:56;;;;;;;4.70;4.20;;;25.00;75.20;;;;;;5029032;28;20228;-71
2022/07/24 07:55:22;;;;;;;5.07;4.57;;;25.10;75.30;;;;;;5049689;28;20214;-71
2022/07/24 07:57:48;;;;;;;4.80;4.40;;;25.20;74.40;;;;;;5036633;28;20231;-71
2022/07/24 08:00:15;;;;;;;4.93;4.53;;;25.20;74.50;;;;;;5032625;28;20253;-70
2022/07/24 08:02:41;;;;;;;5.60;5.00;;;25.30;74.60;;;;;;5034878;28;20539;-71
2022/07/24 08:05:07;;;;;;;4.70;4.30;;;25.30;74.30;;;;;;5069849;28;20934;-71
2022/07/24 08:07:33;;;;;;;4.70;4.30;;;25.50;74.70;;;;;;5077747;28;20211;-70
2022/07/24 08:10:00;;;;;;;7.70;5.10;;;25.70;74.50;;;;;;5052560;28;20484;-71
2022/07/24 08:12:25;;;;;;;5.50;5.00;;;25.80;74.10;;;;;;5051249;28;20480;-71
2022/07/24 08:14:51;;;;;;;10.93;5.10;;;25.80;72.90;;;;;;5051404;28;20464;-71
2022/07/24 08:17:17;;;;;;;4.80;4.33;;;25.90;73.00;;;;;;5034808;28;20220;-71
2022/07/24 08:19:43;;;;;;;5.30;4.30;;;25.90;73.20;;;;;;5071972;28;20214;-71
2022/07/24 08:22:08;;;;;;;5.27;4.87;;;26.00;73.00;;;;;;5049821;28;20217;-71
2022/07/24 08:24:34;;;;;;;5.27;4.77;;;26.10;73.10;;;;;;5058255;28;20214;-70
2022/07/24 08:27:00;;;;;;;5.00;4.40;;;26.30;73.10;;;;;;5033093;28;20227;-72
2022/07/24 08:29:26;;;;;;;5.30;4.90;;;26.30;72.70;;;;;;5032142;28;20262;-71
2022/07/24 08:31:52;;;;;;;5.50;4.80;;;26.40;72.40;;;;;;5056676;28;20224;-72
2022/07/24 08:34:18;;;;;;;4.90;4.50;;;26.50;72.40;;;;;;5079179;28;20468;-72
2022/07/24 08:36:45;;;;;;;5.20;4.70;;;26.60;72.30;;;;;;5051567;28;20232;-70
2022/07/24 08:39:15;;;;;;;5.10;4.70;;;26.70;72.00;;;;;;5067812;28;20256;-72
2022/07/24 08:41:41;;;;;;;5.87;5.30;;;26.70;71.60;;;;;;5032024;28;20495;-73
2022/07/24 08:44:08;;;;;;;5.57;5.07;;;26.80;71.60;;;;;;5050385;28;20499;-71
2022/07/24 08:46:37;;;;;;;5.07;4.67;;;26.90;71.40;;;;;;5051856;28;20456;-71
2022/07/24 08:49:06;;;;;;;5.30;4.87;;;27.00;70.70;;;;;;5035444;28;20284;-71
2022/07/24 08:51:36;;;;;;;5.63;4.97;;;27.00;70.80;;;;;;5040286;28;20474;-72
2022/07/24 08:54:02;;;;;;;5.97;5.47;;;27.10;70.90;;;;;;5045401;28;20497;-72
2022/07/24 08:56:28;;;;;;;5.10;4.70;;;27.20;70.90;;;;;;5046922;28;20222;-72
2022/07/24 08:58:54;;;;;;;6.27;5.33;;;27.40;70.40;;;;;;5039279;28;20275;-71
2022/07/24 09:01:20;;;;;;;5.20;4.70;;;27.50;70.40;;;;;;5045897;28;20453;-71
2022/07/24 09:03:46;;;;;;;5.73;5.20;;;27.50;69.90;;;;;;5041973;28;20695;-71
2022/07/24 09:06:14;;;;;;;5.80;5.25;;;27.70;70.10;;;;;;5040875;28;20236;-71
2022/07/24 09:09:00;;;;;;;5.90;5.50;;;27.90;69.30;;;;;;5047995;28;20725;-71
2022/07/24 09:11:29;;;;;;;6.43;5.93;;;28.00;69.50;;;;;;5051721;28;20228;-71
2022/07/24 09:16:45;;;;;;;6.07;5.55;;;28.10;69.00;;;;;;5050175;28;20217;-72
2022/07/24 09:19:13;;;;;;;6.10;5.50;;;28.40;69.30;;;;;;5051528;28;20233;-71
2022/07/24 09:21:40;;;;;;;5.63;5.22;;;28.60;68.50;;;;;;5035533;28;20243;-71
2022/07/24 09:24:13;;;;;;;6.85;5.38;;;28.70;68.20;;;;;;5039403;28;20227;-71
2022/07/24 09:26:56;;;;;;;5.65;5.25;;;28.80;68.10;;;;;;5044113;28;20231;-71
2022/07/24 09:29:25;;;;;;;5.38;4.97;;;28.90;67.80;;;;;;5049717;28;20619;-72
2022/07/24 09:31:56;;;;;;;5.72;5.32;;;29.00;67.00;;;;;;5050648;28;20282;-71
2022/07/24 09:34:23;;;;;;;8.57;6.03;;;29.10;66.70;;;;;;5049225;28;20278;-71
2022/07/24 09:37:00;;;;;;;5.90;5.50;;;29.10;66.80;;;;;;5069431;28;20640;-72
2022/07/24 09:39:28;;;;;;;5.70;5.22;;;29.10;66.10;;;;;;5046250;28;20719;-72
2022/07/24 09:41:56;;;;;;;5.93;5.00;;;29.20;66.30;;;;;;5063784;28;20221;-72
2022/07/24 09:44:23;;;;;;;5.75;5.25;;;29.30;66.10;;;;;;5049847;28;20324;-71
2022/07/24 09:47:00;;;;;;;5.85;5.25;;;29.40;65.50;;;;;;5021852;28;20226;-71
2022/07/24 09:49:27;;;;;;;6.53;5.78;;;29.50;65.60;;;;;;5030970;28;20234;-72
2022/07/24 09:52:05;;;;;;;6.20;5.70;;;29.70;65.20;;;;;;5043565;28;20267;-72
2022/07/24 09:54:36;;;;;;;5.70;5.30;;;29.80;64.60;;;;;;5045885;28;20295;-72
2022/07/24 09:57:20;;;;;;;6.30;5.80;;;29.90;64.30;;;;;;5067926;28;20227;-71
2022/07/24 09:59:57;;;;;;;5.78;5.35;;;30.00;64.30;;;;;;5033369;28;20225;-72
2022/07/24 10:02:31;;;;;;;5.95;5.45;;;30.10;64.40;;;;;;5050173;28;20719;-71
2022/07/24 10:05:03;;;;;;;6.00;5.60;;;30.10;63.30;;;;;;5017939;28;20245;-71
2022/07/24 10:07:29;;;;;;;6.78;5.90;;;30.10;63.50;;;;;;5081164;28;20219;-69
2022/07/24 10:09:58;;;;;;;6.15;5.65;;;30.20;63.90;;;;;;5033083;28;20236;-69
2022/07/24 10:12:29;;;;;;;6.85;6.15;;;30.40;64.00;;;;;;5062597;28;20343;-72
2022/07/24 10:14:57;;;;;;;6.40;5.90;;;30.50;63.50;;;;;;5070868;28;20227;-72
2022/07/24 10:17:40;;;;;;;6.13;5.68;;;30.60;63.20;;;;;;5038222;28;20245;-71
2022/07/24 10:20:08;;;;;;;7.00;6.40;;;30.90;62.30;;;;;;5064353;28;20224;-72
2022/07/24 10:22:56;;;;;;;6.90;6.40;;;31.10;60.70;;;;;;5028529;28;20215;-72
2022/07/24 10:25:24;;;;;;;7.13;6.55;;;31.10;60.90;;;;;;5061642;28;20283;-72
2022/07/24 10:27:54;;;;;;;6.43;5.93;;;31.10;60.70;;;;;;5071746;28;20276;-71
2022/07/24 10:30:21;;;;;;;8.75;6.18;;;31.10;59.90;;;;;;5052958;28;20227;-71
2022/07/24 10:32:47;;;;;;;7.20;6.60;;;31.10;60.50;;;;;;5029479;28;20231;-71
2022/07/24 10:35:17;;;;;;;7.05;6.40;;;31.20;60.30;;;;;;5034322;28;20243;-71
2022/07/24 10:37:49;;;;;;;6.55;6.05;;;31.20;60.20;;;;;;5052307;28;20242;-72
2022/07/24 10:40:27;;;;;;;7.32;6.68;;;31.30;59.90;;;;;;5053818;28;20760;-70
2022/07/24 10:43:05;;;;;;;6.82;6.32;;;31.20;59.70;;;;;;5052737;28;20248;-70
2022/07/24 10:45:43;;;;;;;9.38;6.90;;;31.20;59.80;;;;;;5052525;28;20230;-70
2022/07/24 10:48:21;;;;;;;6.97;6.38;;;31.20;59.60;;;;;;5071775;28;20301;-70
2022/07/24 10:51:02;;;;;;;7.10;6.50;;;31.30;59.70;;;;;;5037302;28;20306;-71
2022/07/24 10:53:37;;;;;;;6.50;5.90;;;31.10;59.50;;;;;;5034449;28;20298;-71
2022/07/24 10:56:27;;;;;;;7.78;7.18;;;31.30;59.70;;;;;;5072391;28;20206;-71
2022/07/24 10:59:09;;;;;;;6.82;6.28;;;31.40;59.60;;;;;;5041025;28;20224;-71
2022/07/24 11:01:48;;;;;;;7.43;6.75;;;31.50;59.80;;;;;;5046211;28;20254;-71
2022/07/24 11:04:22;;;;;;;7.45;6.85;;;31.80;58.80;;;;;;5045237;28;20227;-71
2022/07/24 11:06:54;;;;;;;7.93;7.13;;;32.00;59.10;;;;;;5039983;28;20690;-70
2022/07/24 11:09:24;;;;;;;7.68;6.97;;;32.20;58.60;;;;;;5066861;28;20223;-71
2022/07/24 11:11:53;;;;;;;8.18;7.55;;;32.40;58.40;;;;;;5045700;28;20235;-71
2022/07/24 11:14:46;;;;;;;7.47;6.88;;;32.50;58.30;;;;;;5030491;28;20216;-70
2022/07/24 11:17:43;;;;;;;6.80;6.30;;;32.70;58.40;;;;;;5066605;28;20337;-70
2022/07/24 11:20:15;;;;;;;6.65;6.25;;;32.70;58.10;;;;;;5066854;28;20215;-71
2022/07/24 11:22:43;;;;;;;7.13;6.63;;;32.80;57.90;;;;;;5015177;28;20226;-71
2022/07/24 11:25:18;;;;;;;7.03;6.32;;;32.80;57.60;;;;;;5025020;28;20242;-72
2022/07/24 11:28:06;;;;;;;7.32;6.53;;;32.80;58.00;;;;;;5048269;28;20228;-71
2022/07/24 11:30:32;;;;;;;8.48;7.80;;;32.80;57.80;;;;;;5049238;28;20227;-71
2022/07/24 11:32:59;;;;;;;7.85;7.20;;;32.90;58.00;;;;;;5044272;28;20291;-71
2022/07/24 11:35:34;;;;;;;7.95;6.75;;;32.90;57.10;;;;;;5059162;28;20289;-71
2022/07/24 11:38:02;;;;;;;7.60;7.00;;;33.00;56.90;;;;;;5060259;28;20237;-71
2022/07/24 11:40:28;;;;;;;6.95;6.45;;;32.90;56.70;;;;;;5032035;28;20684;-71
2022/07/24 11:42:59;;;;;;;6.70;6.20;;;33.00;56.40;;;;;;5024986;28;20704;-72
2022/07/24 11:45:25;;;;;;;6.95;6.35;;;32.90;56.20;;;;;;5050116;28;20816;-71
2022/07/24 11:47:54;;;;;;;7.40;6.80;;;33.00;56.40;;;;;;5035910;28;20218;-71
2022/07/24 11:50:25;;;;;;;6.75;6.15;;;33.20;55.10;;;;;;5051306;28;20214;-70
2022/07/24 11:52:51;;;;;;;7.20;6.47;;;33.30;55.30;;;;;;5035191;28;20314;-71
2022/07/24 11:55:24;;;;;;;6.53;6.03;;;33.30;55.20;;;;;;5049705;28;20226;-71
2022/07/24 11:57:54;;;;;;;8.00;6.40;;;33.40;54.90;;;;;;5045417;28;20288;-71
2022/07/24 12:00:23;;;;;;;7.18;6.57;;;33.50;55.20;;;;;;5032544;28;20256;-70
2022/07/24 12:02:51;;;;;;;6.72;6.13;;;33.60;54.40;;;;;;5051405;28;20219;-71
2022/07/24 12:05:27;;;;;;;6.28;5.65;;;33.60;53.90;;;;;;5034679;28;20222;-71
2022/07/24 12:07:56;;;;;;;6.60;6.13;;;33.50;54.00;;;;;;5041699;28;20229;-71
2022/07/24 12:10:22;;;;;;;6.40;5.85;;;33.50;54.80;;;;;;5037482;28;20214;-70
2022/07/24 12:12:53;;;;;;;6.43;5.95;;;33.50;54.50;;;;;;5033440;28;20265;-70
2022/07/24 12:15:20;;;;;;;7.32;6.57;;;33.50;55.00;;;;;;5062002;28;20691;-71
2022/07/24 12:18:07;;;;;;;5.82;5.32;;;33.60;54.90;;;;;;5049133;28;20584;-70
2022/07/24 12:20:41;;;;;;;6.22;5.68;;;33.60;54.90;;;;;;5038568;28;20302;-70
2022/07/24 12:23:09;;;;;;;6.97;6.38;;;33.80;54.90;;;;;;5048365;28;20309;-70
2022/07/24 12:25:35;;;;;;;6.72;6.18;;;33.80;54.70;;;;;;5048143;28;20678;-70
2022/07/24 12:28:06;;;;;;;6.25;5.75;;;33.70;54.10;;;;;;5051944;28;20219;-70
2022/07/24 12:30:37;;;;;;;6.95;6.25;;;33.80;54.60;;;;;;5054169;28;20277;-69
2022/07/24 12:33:04;;;;;;;5.85;5.45;;;34.00;54.90;;;;;;5048437;28;20225;-71
2022/07/24 12:35:33;;;;;;;6.40;5.90;;;34.20;54.80;;;;;;5068084;28;20239;-71
2022/07/24 12:38:02;;;;;;;6.22;5.72;;;34.40;54.40;;;;;;5045726;28;20218;-71
2022/07/24 12:40:34;;;;;;;7.25;6.55;;;34.50;54.40;;;;;;5030343;28;20221;-71
2022/07/24 12:43:11;;;;;;;7.22;6.53;;;34.60;53.90;;;;;;5047712;28;20214;-70
2022/07/24 12:45:37;;;;;;;6.70;6.20;;;34.80;54.00;;;;;;5031119;28;20702;-70
2022/07/24 12:48:21;;;;;;;6.80;6.30;;;34.80;53.90;;;;;;5034118;28;20256;-70
2022/07/24 12:51:02;;;;;;;6.20;5.80;;;35.00;53.60;;;;;;5041859;28;20243;-70